Time;durP1;ratioP1;P1;durP2;ratioP2;P2;SDS_P1;SDS_P2;PMS_P1;PMS_P2;Temp;Humidity;BMP_temperature;BMP_pressure;BME280_temperature;BME280_humidity;BME280_pressure;Samples;Min_cycle;Max_cycle;Signal;HPM_P1;HPM_P2
2022/05/18 00:00:30;;;;;;;28.98;15.95;;;;;;;-144.47;70.89;53410.28;5015764;28;20095;-71
2022/05/18 00:02:58;;;;;;;23.77;16.08;;;;;;;-144.47;71.25;53402.31;4987260;28;20025;-72
2022/05/18 00:05:24;;;;;;;31.75;16.70;;;;;;;-144.47;71.51;53440.06;5025719;28;20048;-71
2022/05/18 00:07:49;;;;;;;32.70;17.52;;;;;;;-144.47;71.47;53430.13;5017771;28;20395;-67
2022/05/18 00:10:15;;;;;;;27.80;17.45;;;;;;;-144.47;71.59;53424.19;5015581;28;20181;-71
2022/05/18 00:12:45;;;;;;;26.50;15.63;;;;;;;-144.47;71.41;53438.09;5020947;28;20720;-70
2022/05/18 00:15:11;;;;;;;24.88;16.40;;;;;;;-144.47;71.24;53420.22;5015455;28;20033;-70
2022/05/18 00:17:36;;;;;;;27.95;15.38;;;;;;;-144.47;71.31;53436.09;5052343;22;20049;-64
2022/05/18 00:20:02;;;;;;;33.53;17.23;;;;;;;-144.47;71.46;53400.34;5033916;28;20029;-67
2022/05/18 00:22:28;;;;;;;33.25;17.73;;;;;;;-144.47;71.78;53428.16;5030818;28;20018;-64
2022/05/18 00:24:53;;;;;;;26.08;18.02;;;;;;;-144.47;71.81;53422.19;5029523;28;20028;-64
2022/05/18 00:27:18;;;;;;;32.10;17.50;;;;;;;-144.47;71.83;53422.19;5038768;28;20044;-62
2022/05/18 00:29:43;;;;;;;28.48;18.42;;;;;;;-144.47;72.00;53422.19;5047949;28;20031;-64
2022/05/18 00:32:09;;;;;;;27.67;17.60;;;;;;;-144.47;71.88;53404.31;5051241;28;20025;-64
2022/05/18 00:34:34;;;;;;;29.25;18.10;;;;;;;-144.47;71.93;53446.03;5050936;28;20138;-65
2022/05/18 00:36:59;;;;;;;29.35;18.38;;;;;;;-144.47;71.90;53422.19;5050389;28;20024;-63
2022/05/18 00:39:25;;;;;;;33.92;20.77;;;;;;;-144.47;72.07;53404.31;5051019;28;20523;-66
2022/05/18 00:41:50;;;;;;;38.00;18.70;;;;;;;-144.47;72.04;53442.06;5063105;28;20403;-62
2022/05/18 00:44:15;;;;;;;27.33;18.48;;;;;;;-144.47;72.25;53416.22;5062524;28;20496;-64
2022/05/18 00:46:40;;;;;;;33.30;18.67;;;;;;;-144.47;72.29;53434.09;5049956;28;20021;-63
2022/05/18 00:49:07;;;;;;;36.80;20.00;;;;;;;-144.47;72.38;53424.19;5049963;28;20052;-62
2022/05/18 00:51:54;;;;;;;32.13;18.80;;;;;;;-144.47;72.66;53392.41;5050356;28;20017;-64
2022/05/18 00:54:24;;;;;;;33.17;19.63;;;;;;;-144.47;72.58;53424.19;5052822;28;20479;-62
2022/05/18 00:57:00;;;;;;;30.77;19.80;;;;;;;-144.47;72.44;53406.31;5070451;28;20095;-64
2022/05/18 00:59:31;;;;;;;33.03;20.27;;;;;;;-144.47;72.71;53430.13;5068082;28;20838;-64
2022/05/18 01:01:59;;;;;;;34.63;19.67;;;;;;;-144.47;72.82;53408.28;5070576;28;20434;-64
2022/05/18 01:04:26;;;;;;;32.80;20.35;;;;;;;-144.47;72.92;53416.22;5051013;28;20087;-62
2022/05/18 01:07:00;;;;;;;38.92;22.98;;;;;;;-144.47;73.14;53440.06;5048597;28;20036;-63
2022/05/18 01:09:40;;;;;;;35.58;21.65;;;;;;;-144.47;73.29;53442.06;5033370;28;20097;-63
2022/05/18 01:12:07;;;;;;;42.67;22.23;;;;;;;-144.47;73.50;53442.06;5059322;28;20027;-59
2022/05/18 01:14:39;;;;;;;37.67;22.30;;;;;;;-144.47;73.76;53444.03;5054982;28;20036;-65
2022/05/18 01:17:05;;;;;;;39.22;22.80;;;;;;;-144.47;73.92;53412.25;5053987;28;20152;-65
2022/05/18 01:19:46;;;;;;;45.75;21.90;;;;;;;-144.47;74.25;53410.28;5059623;28;20108;-65
2022/05/18 01:22:25;;;;;;;37.13;22.50;;;;;;;-144.47;74.51;53416.22;5049896;28;20025;-61
2022/05/18 01:25:02;;;;;;;36.75;22.48;;;;;;;-144.47;74.69;53418.22;5042494;28;20067;-61
2022/05/18 01:27:27;;;;;;;39.83;22.60;;;;;;;-144.47;74.91;53448.00;5042963;28;20055;-64
2022/05/18 01:29:53;;;;;;;36.03;22.38;;;;;;;-144.47;74.88;53448.00;5063174;28;20020;-64
2022/05/18 01:32:20;;;;;;;36.63;22.55;;;;;;;-144.47;74.94;53444.03;5050161;28;20025;-64
2022/05/18 01:34:45;;;;;;;38.50;24.13;;;;;;;-144.47;75.22;53444.03;5064290;28;20024;-64
2022/05/18 01:37:13;;;;;;;42.72;25.13;;;;;;;-144.47;75.07;53450.00;5050945;28;20032;-63
2022/05/18 01:39:53;;;;;;;39.00;24.03;;;;;;;-144.47;75.61;53432.13;5063374;28;20024;-62
2022/05/18 01:42:36;;;;;;;47.00;24.92;;;;;;;-144.47;75.60;53426.16;5049969;28;20618;-62
2022/05/18 01:45:02;;;;;;;35.45;23.80;;;;;;;-144.47;75.60;53452.00;5055922;28;20068;-64
2022/05/18 01:47:36;;;;;;;35.95;22.67;;;;;;;-144.47;75.66;53436.09;5040308;28;20020;-61
2022/05/18 01:50:05;;;;;;;46.83;23.88;;;;;;;-144.47;76.25;53436.09;5040065;28;20021;-62
2022/05/18 01:52:32;;;;;;;45.47;25.17;;;;;;;-144.47;76.24;53414.25;5058582;28;20046;-64
2022/05/18 01:54:58;;;;;;;31.70;22.08;;;;;;;-144.47;76.28;53416.22;5049679;28;20116;-63
2022/05/18 01:57:23;;;;;;;38.75;22.65;;;;;;;-144.47;75.92;53452.00;5050052;28;20056;-64
2022/05/18 01:59:48;;;;;;;39.10;23.95;;;;;;;-144.47;75.91;53450.00;5057328;28;20442;-64
2022/05/18 02:02:14;;;;;;;34.65;23.02;;;;;;;-144.47;75.64;53436.09;5053747;28;20017;-65
2022/05/18 02:04:41;;;;;;;44.00;21.50;;;;;;;-144.47;75.85;53410.28;5052757;28;20021;-63
2022/05/18 02:07:07;;;;;;;40.50;23.48;;;;;;;-144.47;75.91;53390.41;5053019;28;20031;-62
2022/05/18 02:09:32;;;;;;;37.80;24.38;;;;;;;-144.47;75.78;53446.03;5062270;28;20016;-64
2022/05/18 02:11:57;;;;;;;45.92;24.75;;;;;;;-144.47;75.71;53418.22;5057847;28;20032;-62
2022/05/18 02:14:24;;;;;;;40.38;24.85;;;;;;;-144.47;75.88;53459.94;5060626;28;20085;-66
2022/05/18 02:16:50;;;;;;;40.35;24.58;;;;;;;-144.47;75.68;53465.91;5066313;28;20390;-62
2022/05/18 02:19:16;;;;;;;39.10;24.75;;;;;;;-144.47;75.55;53424.19;5053187;28;20025;-65
2022/05/18 02:21:42;;;;;;;33.28;22.67;;;;;;;-144.47;76.00;53436.09;5053259;28;20033;-64
2022/05/18 02:24:07;;;;;;;39.20;24.42;;;;;;;-144.47;76.11;53457.94;5044824;28;20025;-63
2022/05/18 02:26:32;;;;;;;41.65;25.30;;;;;;;-144.47;76.00;53406.31;5042765;28;20029;-65
2022/05/18 02:28:58;;;;;;;40.60;24.75;;;;;;;-144.47;75.75;53416.22;5053903;28;20024;-64
2022/05/18 02:31:23;;;;;;;31.38;21.25;;;;;;;-144.47;75.71;53422.19;5052657;28;20108;-64
2022/05/18 02:33:48;;;;;;;44.28;26.30;;;;;;;-144.47;75.63;53440.06;5052492;28;20029;-62
2022/05/18 02:36:14;;;;;;;38.70;25.10;;;;;;;-144.47;75.48;53457.94;5052393;28;20077;-62
2022/05/18 02:38:41;;;;;;;39.90;24.83;;;;;;;-144.47;75.51;53442.06;5060887;28;20028;-65
2022/05/18 02:41:06;;;;;;;47.50;25.30;;;;;;;-144.47;75.04;53414.25;5057074;28;20028;-63
2022/05/18 02:43:37;;;;;;;38.25;23.77;;;;;;;-144.47;74.53;53436.09;5053722;28;20024;-65
2022/05/18 02:46:09;;;;;;;39.33;22.40;;;;;;;-144.47;74.35;53422.19;5070028;28;20063;-63
2022/05/18 02:48:34;;;;;;;44.10;25.45;;;;;;;-144.47;74.42;53434.09;5052731;28;20052;-63
2022/05/18 02:51:00;;;;;;;44.58;25.38;;;;;;;-144.47;74.46;53436.09;5051258;28;20061;-61
2022/05/18 02:53:26;;;;;;;42.97;24.80;;;;;;;-144.47;74.68;53428.16;5052612;28;20029;-61
2022/05/18 02:56:06;;;;;;;35.22;24.27;;;;;;;-144.47;74.89;53440.06;5069415;28;20024;-64
2022/05/18 02:58:42;;;;;;;38.55;24.55;;;;;;;-144.47;75.33;53448.00;5060046;28;20036;-62
2022/05/18 03:01:10;;;;;;;37.33;25.75;;;;;;;-144.47;75.68;53461.91;5045781;28;20462;-64
2022/05/18 03:03:36;;;;;;;41.58;25.73;;;;;;;-144.47;75.76;53453.97;5054454;28;20033;-63
2022/05/18 03:06:03;;;;;;;50.28;28.13;;;;;;;-144.47;75.91;53412.25;5050817;28;20028;-63
2022/05/18 03:08:33;;;;;;;42.55;26.23;;;;;;;-144.47;76.10;53428.16;5039087;28;20147;-61
2022/05/18 03:10:58;;;;;;;43.70;26.75;;;;;;;-144.47;76.18;53418.22;5049654;28;20021;-64
2022/05/18 03:13:24;;;;;;;49.90;28.98;;;;;;;-144.47;76.04;53432.13;5058197;28;20032;-62
2022/05/18 03:15:49;;;;;;;54.80;28.85;;;;;;;-144.47;76.09;53461.91;5054352;28;20024;-63
2022/05/18 03:18:15;;;;;;;42.25;28.08;;;;;;;-144.47;75.76;53457.94;5050061;28;20036;-63
2022/05/18 03:23:35;;;;;;;42.55;26.48;;;;;;;-144.47;75.90;53489.72;5052407;28;20400;-61
2022/05/18 03:26:05;;;;;;;47.05;27.05;;;;;;;-144.47;75.76;53426.16;5054210;28;20090;-63
2022/05/18 03:28:31;;;;;;;48.90;28.80;;;;;;;-144.47;75.94;53450.00;5048436;28;20484;-64
2022/05/18 03:30:57;;;;;;;47.03;28.48;;;;;;;-144.47;76.01;53444.03;5058209;28;20016;-64
2022/05/18 03:33:22;;;;;;;40.10;27.15;;;;;;;-144.47;75.39;53461.91;5055928;28;20028;-63
2022/05/18 03:35:48;;;;;;;50.45;28.88;;;;;;;-144.47;75.51;53412.25;5060645;28;20029;-62
2022/05/18 03:38:15;;;;;;;47.85;27.85;;;;;;;-144.47;75.38;53452.00;5064679;28;20504;-65
2022/05/18 03:40:41;;;;;;;44.42;28.05;;;;;;;-144.47;75.42;53487.75;5049799;28;20078;-65
2022/05/18 03:43:06;;;;;;;50.78;28.55;;;;;;;-144.47;75.32;53436.09;5051249;28;20028;-63
2022/05/18 03:45:33;;;;;;;47.28;27.90;;;;;;;-144.47;74.84;53434.09;5054531;28;20033;-64
2022/05/18 03:47:59;;;;;;;41.60;25.83;;;;;;;-144.47;74.89;53424.19;5041868;28;20021;-64
2022/05/18 03:50:28;;;;;;;48.25;28.20;;;;;;;-144.47;74.84;53422.19;5051135;28;20404;-62
2022/05/18 03:52:53;;;;;;;42.40;27.00;;;;;;;-144.47;74.17;53459.94;5051662;28;20020;-63
2022/05/18 03:55:19;;;;;;;42.53;26.88;;;;;;;-144.47;74.02;53481.78;5063213;28;20021;-63
2022/05/18 03:57:44;;;;;;;40.78;26.75;;;;;;;-144.47;74.07;53453.97;5058060;28;20147;-64
2022/05/18 04:00:10;;;;;;;41.22;25.80;;;;;;;-144.47;73.54;53438.09;5069071;28;20040;-63
2022/05/18 04:02:35;;;;;;;40.47;25.80;;;;;;;-144.47;73.00;53408.28;5057651;28;20028;-63
2022/05/18 04:05:00;;;;;;;37.72;25.20;;;;;;;-144.47;72.50;53426.16;5059692;28;20032;-63
2022/05/18 04:07:26;;;;;;;38.90;24.42;;;;;;;-144.47;72.33;53453.97;5064510;28;20029;-63
2022/05/18 04:09:51;;;;;;;50.22;23.55;;;;;;;-144.47;72.50;53386.44;5050461;28;20025;-63
2022/05/18 04:12:16;;;;;;;43.83;26.38;;;;;;;-144.47;72.18;53400.34;5050998;28;20587;-61
2022/05/18 04:14:42;;;;;;;37.17;23.13;;;;;;;-144.47;71.96;53461.91;5045104;28;20075;-62
2022/05/18 04:17:07;;;;;;;37.75;23.60;;;;;;;-144.47;71.58;53436.09;5064348;28;20551;-66
2022/05/18 04:19:35;;;;;;;35.85;21.42;;;;;;;-144.47;71.18;53436.09;5050353;28;20031;-64
2022/05/18 04:22:00;;;;;;;46.08;25.42;;;;;;;-144.47;71.74;53372.53;5036952;28;20109;-63
2022/05/18 04:24:25;;;;;;;36.42;22.30;;;;;;;-144.47;71.09;53408.28;5050734;28;20112;-63
2022/05/18 04:26:51;;;;;;;40.05;21.92;;;;;;;-144.47;70.75;53465.91;5048778;28;20086;-66
2022/05/18 04:29:16;;;;;;;35.83;21.60;;;;;;;-144.47;70.48;53446.03;5044933;28;20036;-63
2022/05/18 04:31:41;;;;;;;35.45;21.55;;;;;;;-144.47;69.73;53392.41;5056196;28;20031;-64
2022/05/18 04:34:07;;;;;;;32.88;20.80;;;;;;;-144.47;69.76;53430.13;5057970;28;20438;-63
2022/05/18 04:36:32;;;;;;;35.50;21.55;;;;;;;-144.47;69.85;53416.22;5048309;28;20473;-64
2022/05/18 04:38:57;;;;;;;35.67;21.23;;;;;;;-144.47;69.82;53396.38;5049419;28;20036;-65
2022/05/18 04:41:23;;;;;;;40.85;21.67;;;;;;;-144.47;69.44;53416.22;5054208;28;20041;-65
2022/05/18 04:43:48;;;;;;;37.00;20.88;;;;;;;-144.47;68.92;53418.22;5063502;28;20549;-64
2022/05/18 04:46:13;;;;;;;33.70;20.35;;;;;;;-144.47;68.52;53418.22;5059473;28;20563;-64
2022/05/18 04:48:40;;;;;;;33.22;19.80;;;;;;;-144.47;68.40;53450.00;5049669;28;20031;-64
2022/05/18 04:51:06;;;;;;;33.55;20.88;;;;;;;-144.47;67.81;53392.41;5056748;28;20108;-64
2022/05/18 04:53:34;;;;;;;31.30;19.50;;;;;;;-144.47;67.63;53406.31;5057006;28;20139;-66
2022/05/18 04:55:59;;;;;;;40.17;22.08;;;;;;;-144.47;67.21;53368.56;5048206;28;20028;-63
2022/05/18 04:58:25;;;;;;;29.02;19.70;;;;;;;-144.47;66.92;53366.56;5045941;28;20039;-65
2022/05/18 05:01:02;;;;;;;34.53;19.35;;;;;;;-144.47;66.51;53428.16;5041541;28;20029;-71
2022/05/18 05:03:28;;;;;;;37.97;19.88;;;;;;;-144.47;66.09;53382.47;5047948;28;20044;-66
2022/05/18 05:05:53;;;;;;;31.00;18.48;;;;;;;-144.47;65.65;53408.28;5048786;28;20025;-66
2022/05/18 05:08:19;;;;;;;31.30;18.65;;;;;;;-144.47;65.63;53434.09;5037090;28;20025;-65
2022/05/18 05:10:45;;;;;;;30.83;18.15;;;;;;;-144.47;65.35;53420.22;5048349;28;20023;-67
2022/05/18 05:13:10;;;;;;;36.38;19.08;;;;;;;-144.47;65.11;53390.41;5050116;28;20100;-66
2022/05/18 05:15:37;;;;;;;39.38;18.48;;;;;;;-144.47;65.09;53408.28;5053526;28;20621;-65
2022/05/18 05:18:02;;;;;;;38.28;17.73;;;;;;;-144.47;65.28;53424.19;5049480;28;20059;-66
2022/05/18 05:20:28;;;;;;;29.52;18.45;;;;;;;-144.47;64.66;53392.41;5051364;28;20056;-67
2022/05/18 05:22:53;;;;;;;28.70;18.42;;;;;;;-144.47;64.61;53410.28;5049678;28;20021;-65
2022/05/18 05:25:19;;;;;;;35.67;17.45;;;;;;;-144.47;64.66;53374.50;5048547;28;20025;-66
2022/05/18 05:27:44;;;;;;;35.47;20.65;;;;;;;-144.47;65.06;53384.44;5043897;28;20022;-63
2022/05/18 05:30:10;;;;;;;34.95;17.85;;;;;;;-144.47;64.24;53384.44;5047637;28;20021;-66
2022/05/18 05:32:36;;;;;;;31.08;17.75;;;;;;;-144.47;64.39;53370.53;5049673;28;20035;-63
2022/05/18 05:35:02;;;;;;;28.52;17.35;;;;;;;-144.47;64.55;53398.34;5068876;28;20095;-64
2022/05/18 05:37:27;;;;;;;30.45;17.27;;;;;;;-144.47;64.37;53384.44;5055651;28;20032;-66
2022/05/18 05:39:53;;;;;;;25.67;16.08;;;;;;;-144.47;63.58;53364.59;5060852;28;20017;-62
2022/05/18 05:42:18;;;;;;;31.60;17.60;;;;;;;-144.47;63.59;53392.41;5063874;28;20028;-65
2022/05/18 05:44:44;;;;;;;22.42;15.73;;;;;;;-144.47;64.03;53388.41;5057023;28;20044;-64
2022/05/18 05:47:11;;;;;;;29.88;17.55;;;;;;;-144.47;64.19;53412.25;5056859;28;20029;-65
2022/05/18 05:49:38;;;;;;;36.03;15.90;;;;;;;-144.47;64.21;53424.19;5040897;28;20367;-65
2022/05/18 05:52:04;;;;;;;24.20;15.25;;;;;;;-144.47;64.52;53408.28;5064050;28;20082;-63
2022/05/18 05:54:31;;;;;;;23.90;14.93;;;;;;;-144.47;64.92;53372.53;5055946;28;20434;-65
2022/05/18 05:56:56;;;;;;;25.85;15.75;;;;;;;-144.47;65.04;53400.34;5067827;28;20511;-64
2022/05/18 05:59:21;;;;;;;29.35;16.88;;;;;;;-144.47;65.26;53372.53;5056633;28;20033;-65
2022/05/18 06:01:47;;;;;;;23.60;16.02;;;;;;;-144.47;65.42;53422.19;5049370;28;20033;-65
2022/05/18 06:04:14;;;;;;;34.83;18.58;;;;;;;-144.47;65.62;53358.63;5053239;28;20025;-63
2022/05/18 06:06:40;;;;;;;31.35;18.45;;;;;;;-144.47;65.47;53418.22;5055740;28;20033;-65
2022/05/18 06:09:07;;;;;;;36.47;18.83;;;;;;;-144.47;65.56;53406.31;5055159;28;20513;-63
2022/05/18 06:11:34;;;;;;;32.17;17.45;;;;;;;-144.47;65.50;53398.34;5054996;28;20021;-63
2022/05/18 06:14:00;;;;;;;26.38;15.85;;;;;;;-144.47;64.39;53420.22;5055267;28;20400;-64
2022/05/18 06:18:53;;;;;;;30.05;17.25;;;;;;;-144.47;64.32;53402.31;5031039;28;20060;-70
2022/05/18 06:21:18;;;;;;;31.10;15.35;;;;;;;-144.47;63.93;53372.53;5029113;28;20025;-69
2022/05/18 06:23:44;;;;;;;26.35;15.85;;;;;;;-144.47;63.74;53390.41;5026058;28;20025;-67
2022/05/18 06:26:09;;;;;;;33.78;16.10;;;;;;;-144.47;62.66;53400.34;5030499;28;20488;-69
2022/05/18 06:28:36;;;;;;;25.13;16.58;;;;;;;-144.47;62.46;53398.34;5013616;28;20036;-69
2022/05/18 06:31:03;;;;;;;29.52;15.85;;;;;;;-144.47;62.41;53384.44;4997615;28;20044;-68
2022/05/18 06:33:28;;;;;;;28.33;15.65;;;;;;;-144.47;62.44;53366.56;4995836;28;20188;-67
2022/05/18 06:35:53;;;;;;;23.50;14.02;;;;;;;-144.47;62.46;53400.34;5013857;28;20553;-68
2022/05/18 06:38:20;;;;;;;38.30;16.00;;;;;;;-144.47;61.76;53394.38;5014026;28;20104;-71
2022/05/18 06:43:29;;;;;;;31.17;14.32;;;;;;;-144.47;61.24;53338.75;5013255;28;20036;-69
2022/05/18 06:45:55;;;;;;;23.15;13.27;;;;;;;-144.47;61.10;53390.41;5009720;28;20377;-70
2022/05/18 06:48:22;;;;;;;21.75;13.82;;;;;;;-144.47;60.69;53394.38;5009961;28;20467;-68
2022/05/18 06:50:47;;;;;;;31.70;14.70;;;;;;;-144.47;60.98;53386.44;5009656;28;20071;-70
2022/05/18 06:53:12;;;;;;;30.02;14.00;;;;;;;-144.47;60.80;53384.44;5010764;28;20042;-71
2022/05/18 06:55:38;;;;;;;22.13;13.85;;;;;;;-144.47;60.29;53400.34;4990087;28;20359;-70
2022/05/18 06:58:03;;;;;;;23.17;14.30;;;;;;;-144.47;59.92;53396.38;5008412;28;20049;-70
2022/05/18 07:00:29;;;;;;;23.02;13.63;;;;;;;-144.47;59.69;53372.53;5008896;28;20125;-68
2022/05/18 07:02:54;;;;;;;29.98;13.45;;;;;;;-144.47;59.27;53364.59;5010429;28;20032;-69
2022/05/18 07:05:19;;;;;;;24.83;13.75;;;;;;;-144.47;59.08;53364.59;5010155;28;20513;-71
2022/05/18 07:07:44;;;;;;;22.63;12.70;;;;;;;-144.47;59.21;53370.53;5007529;28;20045;-67
2022/05/18 07:10:10;;;;;;;22.95;13.30;;;;;;;-144.47;58.79;53376.50;5010210;28;20021;-71
2022/05/18 07:12:37;;;;;;;24.42;12.57;;;;;;;-144.47;58.28;53410.28;5009922;28;20076;-67
2022/05/18 07:15:07;;;;;;;17.40;11.70;;;;;;;-144.47;57.65;53330.81;5010487;28;20026;-70
2022/05/18 07:17:34;;;;;;;19.77;12.00;;;;;;;-144.47;57.67;53374.50;5009990;28;20033;-71
2022/05/18 07:20:00;;;;;;;27.35;13.13;;;;;;;-144.47;57.39;53384.44;5008255;28;20524;-70
2022/05/18 07:22:25;;;;;;;28.80;12.23;;;;;;;-144.47;57.06;53344.72;5010378;28;20149;-67
2022/05/18 07:24:50;;;;;;;27.77;15.73;;;;;;;-144.47;57.28;53368.56;5010696;28;20389;-69
2022/05/18 07:27:16;;;;;;;24.23;13.35;;;;;;;-144.47;57.35;53332.81;4992907;28;20029;-67
2022/05/18 07:29:42;;;;;;;29.35;12.05;;;;;;;-144.47;57.21;53384.44;5010465;28;20029;-70
2022/05/18 07:32:14;;;;;;;28.10;13.18;;;;;;;-144.47;56.89;53312.94;5009963;28;20026;-69
2022/05/18 07:34:44;;;;;;;25.00;11.90;;;;;;;-144.47;56.75;53370.53;4992032;28;20026;-70
2022/05/18 07:37:10;;;;;;;22.50;12.20;;;;;;;-144.47;56.97;53334.78;5011084;28;20361;-67
2022/05/18 07:39:36;;;;;;;22.10;12.38;;;;;;;-144.47;56.74;53342.72;4991416;28;20033;-68
2022/05/18 07:42:05;;;;;;;24.00;11.77;;;;;;;-144.47;56.09;53324.84;4993483;28;20033;-72
2022/05/18 07:44:31;;;;;;;20.05;11.27;;;;;;;-144.47;55.88;53340.75;5011023;28;20018;-72
2022/05/18 07:46:56;;;;;;;17.05;11.00;;;;;;;-144.47;55.58;53308.97;5005007;28;20025;-68
2022/05/18 07:49:22;;;;;;;21.65;11.60;;;;;;;-144.47;55.12;53394.38;5001076;28;20029;-70
2022/05/18 07:51:47;;;;;;;20.48;11.65;;;;;;;-144.47;55.38;53328.81;5009739;28;20417;-70
2022/05/18 07:54:13;;;;;;;32.72;11.45;;;;;;;-144.47;54.82;53330.81;5009441;28;20686;-69
2022/05/18 07:56:39;;;;;;;20.05;10.70;;;;;;;-144.47;54.58;53299.03;5011270;28;20402;-71
2022/05/18 07:59:06;;;;;;;18.20;11.02;;;;;;;-144.47;54.31;53346.72;5009421;28;20087;-68
2022/05/18 08:01:33;;;;;;;18.10;10.07;;;;;;;-144.47;52.93;53348.69;5009558;28;20032;-70
2022/05/18 08:03:58;;;;;;;16.38;8.90;;;;;;;-144.47;52.63;53316.91;5011210;28;20470;-70
2022/05/18 08:06:24;;;;;;;18.40;10.07;;;;;;;-144.47;53.11;53320.88;5013062;28;20022;-70
2022/05/18 08:08:49;;;;;;;18.60;10.15;;;;;;;-144.47;52.72;53368.56;5009737;28;20026;-70
2022/05/18 08:16:42;;;;;;;18.73;9.05;;;;;;;-144.47;51.82;53326.84;5004006;28;20079;-70
2022/05/18 08:19:12;;;;;;;28.08;8.57;;;;;;;-144.47;52.24;53330.81;5007983;28;20432;-70
2022/05/18 08:21:38;;;;;;;20.65;9.38;;;;;;;-144.47;51.84;53314.91;5008944;28;20056;-71
2022/05/18 08:24:05;;;;;;;20.63;8.88;;;;;;;-144.47;51.10;53306.97;4983397;28;20164;-71
2022/05/18 08:26:31;;;;;;;13.43;8.13;;;;;;;-144.47;51.06;53318.91;5007130;28;20509;-71
2022/05/18 08:28:57;;;;;;;21.88;8.70;;;;;;;-144.47;51.16;53305.00;4991072;28;20397;-69
2022/05/18 08:31:23;;;;;;;20.63;9.40;;;;;;;-144.47;50.72;53332.81;5008561;28;20049;-68
2022/05/18 08:33:49;;;;;;;16.92;9.38;;;;;;;-144.47;50.77;53338.75;5008006;28;20065;-71
2022/05/18 08:36:17;;;;;;;16.75;9.50;;;;;;;-144.47;51.14;53322.88;5009287;28;20029;-69
2022/05/18 08:38:43;;;;;;;20.40;9.32;;;;;;;-144.47;51.19;53293.06;5008456;28;20685;-68
2022/05/18 08:41:12;;;;;;;19.42;8.52;;;;;;;-144.47;51.32;53267.25;5009026;28;20034;-71
2022/05/18 08:43:39;;;;;;;;;;;;;;;-144.47;51.27;53303.00;5009275;28;20399;-69
2022/05/18 08:46:13;;;;;;;23.13;9.82;;;;;;;-144.47;50.72;53326.84;5008962;28;19976;-71
2022/05/18 08:48:56;;;;;;;19.40;10.23;;;;;;;-144.47;51.37;53312.94;5003925;28;20061;-70
2022/05/18 08:51:48;;;;;;;17.08;9.57;;;;;;;-144.47;51.40;53320.88;5001750;28;20014;-69
2022/05/18 08:54:40;;;;;;;19.58;10.15;;;;;;;-144.47;50.95;53330.81;5005839;28;20033;-71
2022/05/18 08:57:17;;;;;;;21.02;9.57;;;;;;;-144.47;51.04;53306.97;4996444;28;20095;-68
2022/05/18 08:59:45;;;;;;;23.88;10.38;;;;;;;-144.47;49.93;53340.75;5007688;28;20457;-71
2022/05/18 09:02:21;;;;;;;19.88;10.45;;;;;;;-144.47;49.95;53314.91;5008139;28;20367;-72
2022/05/18 09:04:53;;;;;;;20.42;9.82;;;;;;;-144.47;50.40;53326.84;5008111;28;20029;-69
2022/05/18 09:07:24;;;;;;;17.30;9.55;;;;;;;-144.47;50.51;53348.69;5004427;28;20081;-67
2022/05/18 09:10:14;;;;;;;24.08;10.35;;;;;;;-144.47;50.55;53320.88;5006676;28;20032;-67
2022/05/18 09:12:42;;;;;;;33.03;9.15;;;;;;;-144.47;49.70;53285.13;5003260;28;20045;-69
2022/05/18 09:15:11;;;;;;;14.77;7.18;;;;;;;-144.47;48.24;53297.03;4990377;28;20022;-71
2022/05/18 09:17:40;;;;;;;13.45;7.60;;;;;;;-144.47;48.46;53295.06;5007870;28;20033;-70
2022/05/18 09:20:22;;;;;;;24.52;8.95;;;;;;;-144.47;48.46;53312.94;5003661;28;20021;-68
2022/05/18 09:22:53;;;;;;;17.83;6.72;;;;;;;-144.47;47.39;53330.81;5007947;28;20018;-70
2022/05/18 09:25:34;;;;;;;18.52;7.38;;;;;;;-144.47;47.32;53297.03;5000800;28;20026;-70
2022/05/18 09:28:08;;;;;;;15.98;7.18;;;;;;;-144.47;47.56;53281.16;4997083;28;20470;-68
2022/05/18 09:30:36;;;;;;;20.77;7.28;;;;;;;-144.47;47.54;53310.94;5007251;28;20453;-70
2022/05/18 09:33:27;;;;;;;14.25;7.15;;;;;;;-144.47;47.67;53310.94;5007347;28;20507;-71
2022/05/18 09:36:17;;;;;;;16.02;6.95;;;;;;;-144.47;47.46;53291.09;5007591;28;20378;-68
2022/05/18 09:39:05;;;;;;;14.52;7.82;;;;;;;-144.47;47.66;53279.16;5007801;28;20470;-72
2022/05/18 09:41:40;;;;;;;18.17;8.18;;;;;;;-144.47;47.86;53269.22;5007888;28;20084;-68
2022/05/18 09:44:37;;;;;;;10.93;6.47;;;;;;;-144.47;46.98;53306.97;4995327;28;20539;-71
2022/05/18 09:47:03;;;;;;;13.40;7.28;;;;;;;-144.47;47.04;53285.13;4995592;28;20088;-66
2022/05/18 09:49:37;;;;;;;13.52;7.90;;;;;;;-144.47;46.55;53281.16;5006604;28;20061;-70
2022/05/18 09:52:04;;;;;;;17.65;7.13;;;;;;;-144.47;46.79;53269.22;5007252;28;20643;-68
2022/05/18 09:54:31;;;;;;;14.95;6.93;;;;;;;-144.47;45.85;53257.31;5007799;28;20034;-68
2022/05/18 09:57:05;;;;;;;13.25;7.57;;;;;;;-144.47;46.56;53261.28;5007122;28;20520;-67
2022/05/18 09:59:36;;;;;;;27.15;8.70;;;;;;;-144.47;46.72;53285.13;5006848;28;20044;-68
2022/05/18 10:07:46;;;;;;;16.13;5.97;;;;;;;-144.47;45.25;53247.38;5007514;28;20125;-71
2022/05/18 10:10:24;;;;;;;10.82;6.82;;;;;;;-144.47;45.00;53293.06;4989776;28;20018;-69
2022/05/18 10:12:56;;;;;;;13.48;6.60;;;;;;;-144.47;44.73;53281.16;5007969;28;20037;-72
2022/05/18 10:15:33;;;;;;;13.23;6.40;;;;;;;-144.47;44.80;53295.06;5007032;28;20072;-72
2022/05/18 10:18:09;;;;;;;14.88;6.88;;;;;;;-144.47;43.89;53279.16;5007132;28;20132;-70
2022/05/18 10:20:35;;;;;;;15.18;6.45;;;;;;;-144.47;43.46;53263.28;5007798;28;20038;-70
2022/05/18 10:23:02;;;;;;;15.35;6.15;;;;;;;-144.47;43.46;53287.13;5009827;28;20029;-70
2022/05/18 10:25:32;;;;;;;10.88;6.15;;;;;;;-144.47;43.48;53229.50;5002687;28;20105;-68
2022/05/18 10:27:57;;;;;;;13.40;6.47;;;;;;;-144.47;42.95;53261.28;5010550;28;20057;-68
2022/05/18 10:30:29;;;;;;;15.13;5.75;;;;;;;-144.47;43.43;53263.28;5011004;28;20576;-71
2022/05/18 10:32:59;;;;;;;11.93;4.85;;;;;;;-144.47;42.04;53271.22;5011458;28;20052;-69
2022/05/18 10:35:48;;;;;;;9.57;5.25;;;;;;;-144.47;42.15;53263.28;5011741;28;20022;-70
2022/05/18 10:38:34;;;;;;;7.18;4.15;;;;;;;-144.47;41.02;53259.31;5011435;28;20091;-68
2022/05/18 10:41:02;;;;;;;17.08;5.50;;;;;;;-144.47;41.04;53227.53;4992947;28;20374;-71
2022/05/18 10:43:33;;;;;;;12.32;4.45;;;;;;;-144.47;40.28;53261.28;5010722;28;20112;-67
2022/05/18 10:46:31;;;;;;;10.73;5.38;;;;;;;-144.47;41.83;53237.44;5010897;28;20099;-66
2022/05/18 10:49:05;;;;;;;;;;;;;;;-144.47;41.40;53251.34;5003516;28;20049;-69
2022/05/18 10:51:39;;;;;;;14.02;5.18;;;;;;;-144.47;40.95;53263.28;4987752;28;20005;-67
2022/05/18 10:54:21;;;;;;;9.93;4.70;;;;;;;-144.47;40.75;53233.47;5010569;28;20041;-71
2022/05/18 10:56:47;;;;;;;14.77;4.88;;;;;;;-144.47;40.26;53249.38;5010328;28;20099;-70
2022/05/18 10:59:27;;;;;;;14.52;4.82;;;;;;;-144.47;40.18;53273.22;5010285;28;20022;-70
2022/05/18 11:02:02;;;;;;;13.68;6.05;;;;;;;-144.47;40.18;53261.28;5009313;28;20117;-71
2022/05/18 11:04:52;;;;;;;17.77;5.70;;;;;;;-144.47;40.05;53227.53;4991673;28;20033;-69
2022/05/18 11:07:21;;;;;;;11.68;4.80;;;;;;;-144.47;39.61;53209.66;5006510;28;20018;-68
2022/05/18 11:09:46;;;;;;;13.27;5.18;;;;;;;-144.47;39.89;53225.53;4987218;28;20110;-68
2022/05/18 11:12:27;;;;;;;14.05;4.72;;;;;;;-144.47;39.29;53207.66;5008578;28;20113;-67
2022/05/18 11:15:04;;;;;;;11.30;4.97;;;;;;;-144.47;39.49;53227.53;5010692;28;20049;-72
2022/05/18 11:17:42;;;;;;;13.55;4.82;;;;;;;-144.47;39.34;53215.59;5010614;28;20392;-69
2022/05/18 11:20:18;;;;;;;12.95;4.63;;;;;;;-144.47;38.65;53243.41;4991395;28;20048;-70
2022/05/18 11:23:01;;;;;;;13.73;4.47;;;;;;;-144.47;38.77;53217.59;5010360;28;20511;-67
2022/05/18 11:26:01;;;;;;;11.52;4.03;;;;;;;-144.47;38.23;53233.47;5003121;28;20022;-70
2022/05/18 11:28:42;;;;;;;10.85;4.50;;;;;;;-144.47;37.60;53223.56;5001396;28;20076;-69
2022/05/18 11:31:48;;;;;;;9.02;3.97;;;;;;;-144.47;38.55;53219.56;4991736;28;20033;-69